createdAt,value
2017-10-16T00:00:46.862Z,62.90
2017-10-16T00:03:14.862Z,62.90
2017-10-16T00:05:42.307Z,62.70
2017-10-16T00:08:10.252Z,62.60
2017-10-16T00:10:38.114Z,63.00
2017-10-16T00:13:06.960Z,62.90
2017-10-16T00:15:34.506Z,62.90
2017-10-16T00:18:03.911Z,62.90
2017-10-16T00:20:32.227Z,62.70
2017-10-16T00:22:59.688Z,62.70
2017-10-16T00:25:27.206Z,62.80
2017-10-16T00:27:55.086Z,63.00
2017-10-16T00:30:22.903Z,62.90
2017-10-16T00:32:51.250Z,62.90
2017-10-16T00:35:19.947Z,63.00
2017-10-16T00:37:47.403Z,62.90
2017-10-16T00:40:15.197Z,63.00
2017-10-16T00:42:42.644Z,63.00
2017-10-16T00:45:10.165Z,63.30
2017-10-16T00:47:38.002Z,63.10
2017-10-16T00:50:05.616Z,63.10
2017-10-16T00:52:34.271Z,62.90
2017-10-16T00:55:01.723Z,62.90
2017-10-16T00:57:30.332Z,62.90
2017-10-16T00:59:57.806Z,62.80
2017-10-16T01:02:26.316Z,62.90
2017-10-16T01:04:53.773Z,62.80
2017-10-16T01:07:21.754Z,63.20
2017-10-16T01:09:49.215Z,62.90
2017-10-16T01:12:16.886Z,62.50
2017-10-16T01:14:44.336Z,62.80
2017-10-16T01:17:11.816Z,62.80
2017-10-16T01:19:39.636Z,62.80
2017-10-16T01:22:07.237Z,62.90
2017-10-16T01:24:35.148Z,63.20
2017-10-16T01:27:02.606Z,63.40
2017-10-16T01:29:30.088Z,63.80
2017-10-16T01:31:57.562Z,63.90
2017-10-16T01:34:25.658Z,63.80
2017-10-16T01:36:53.098Z,63.50
2017-10-16T01:39:20.787Z,63.40
2017-10-16T01:41:48.434Z,63.40
2017-10-16T01:44:15.994Z,63.90
2017-10-16T01:46:44.206Z,63.50
2017-10-16T01:49:12.056Z,63.70
2017-10-16T01:51:39.521Z,63.90
2017-10-16T01:54:07.141Z,63.50
2017-10-16T01:56:35.520Z,63.70
2017-10-16T01:59:03.393Z,63.80
2017-10-16T02:01:30.842Z,63.60
2017-10-16T02:03:58.648Z,63.50
2017-10-16T02:06:26.103Z,63.80
2017-10-16T02:08:53.833Z,63.70
2017-10-16T02:11:22.148Z,63.90
2017-10-16T02:13:49.629Z,63.90
2017-10-16T02:16:17.080Z,63.80
2017-10-16T02:18:44.687Z,63.80
2017-10-16T02:21:13.727Z,63.90
2017-10-16T02:23:41.188Z,63.70
2017-10-16T02:26:08.646Z,63.60
2017-10-16T02:28:36.303Z,63.90
2017-10-16T02:31:03.775Z,64.10
2017-10-16T02:33:31.245Z,64.00
2017-10-16T02:35:58.708Z,63.90
2017-10-16T02:38:26.185Z,63.60
2017-10-16T02:40:53.656Z,63.80
2017-10-16T02:43:21.259Z,63.80
2017-10-16T02:45:48.750Z,64.00
2017-10-16T02:48:16.618Z,64.90
2017-10-16T02:50:45.243Z,64.40
2017-10-16T02:53:12.722Z,64.30
2017-10-16T02:55:40.204Z,65.00
2017-10-16T02:58:08.338Z,65.20
2017-10-16T03:00:36.598Z,64.80
2017-10-16T03:03:04.564Z,64.70
2017-10-16T03:05:32.060Z,64.60
2017-10-16T03:08:00.045Z,64.50
2017-10-16T03:10:28.157Z,64.70
2017-10-16T03:12:56.387Z,64.80
2017-10-16T03:15:23.876Z,64.80
2017-10-16T03:17:51.376Z,65.00
2017-10-16T03:20:20.351Z,64.90
2017-10-16T03:22:47.847Z,64.90
2017-10-16T03:25:16.075Z,64.80
2017-10-16T03:27:43.518Z,64.80
2017-10-16T03:30:11.011Z,64.90
2017-10-16T03:32:38.454Z,65.00
2017-10-16T03:35:06.673Z,65.10
2017-10-16T03:37:34.129Z,65.10
2017-10-16T03:40:01.675Z,65.20
2017-10-16T03:42:29.910Z,65.60
2017-10-16T03:44:57.897Z,65.50
2017-10-16T03:47:27.301Z,65.00
2017-10-16T03:49:54.784Z,65.10
2017-10-16T03:52:22.286Z,64.70
2017-10-16T03:54:50.537Z,65.30
2017-10-16T03:57:19.033Z,65.30
2017-10-16T03:59:46.489Z,65.60
2017-10-16T04:02:14.870Z,65.80
2017-10-16T04:04:42.353Z,65.60
2017-10-16T04:07:10.342Z,65.40
2017-10-16T04:09:37.847Z,65.30
2017-10-16T04:12:06.084Z,65.30
2017-10-16T04:14:33.537Z,65.30
2017-10-16T04:17:01.393Z,65.40
2017-10-16T04:19:28.848Z,65.60
2017-10-16T04:21:57.089Z,65.70
2017-10-16T04:24:24.535Z,65.70
2017-10-16T04:26:52.231Z,65.80
2017-10-16T04:29:19.687Z,65.90
2017-10-16T04:31:47.233Z,65.50
2017-10-16T04:34:15.058Z,65.60
2017-10-16T04:36:42.510Z,65.80
2017-10-16T04:39:10.017Z,65.70
2017-10-16T04:41:37.825Z,66.00
2017-10-16T04:44:05.398Z,65.90
2017-10-16T04:46:33.142Z,65.70
2017-10-16T04:49:01.900Z,65.90
2017-10-16T04:51:30.056Z,65.90
2017-10-16T04:53:57.547Z,65.60
2017-10-16T04:56:25.545Z,65.70
2017-10-16T04:58:53.520Z,66.10
2017-10-16T05:01:20.974Z,66.50
2017-10-16T05:03:48.722Z,66.50
2017-10-16T05:06:16.943Z,66.70
2017-10-16T05:08:44.898Z,67.40
2017-10-16T05:11:13.114Z,66.20
2017-10-16T05:13:41.477Z,66.30
2017-10-16T05:16:08.919Z,66.20
2017-10-16T05:18:37.174Z,66.50
2017-10-16T05:21:04.628Z,66.40
2017-10-16T05:23:32.093Z,66.20
2017-10-16T05:25:59.902Z,67.30
2017-10-16T05:28:27.347Z,66.20
2017-10-16T05:30:55.969Z,66.60
2017-10-16T05:33:23.446Z,66.70
2017-10-16T05:35:50.908Z,66.60
2017-10-16T05:38:18.393Z,66.90
2017-10-16T05:40:46.708Z,66.90
2017-10-16T05:43:14.381Z,66.90
2017-10-16T05:45:43.045Z,67.30
2017-10-16T05:48:12.241Z,67.30
2017-10-16T05:50:39.721Z,67.50
2017-10-16T05:53:07.940Z,67.50
2017-10-16T05:55:35.416Z,67.50
2017-10-16T05:58:03.338Z,67.80
2017-10-16T06:00:30.816Z,67.60
2017-10-16T06:02:58.580Z,67.50
2017-10-16T06:05:26.840Z,67.30
2017-10-16T06:07:54.796Z,67.50
2017-10-16T06:10:24.014Z,67.50
2017-10-16T06:12:52.340Z,67.40
2017-10-16T06:15:19.836Z,67.40
2017-10-16T06:17:47.289Z,67.20
2017-10-16T06:20:15.530Z,67.30
2017-10-16T06:22:43.762Z,68.00
2017-10-16T06:25:11.693Z,68.00
2017-10-16T06:27:39.996Z,68.60
2017-10-16T06:30:07.459Z,68.60
2017-10-16T06:32:35.032Z,68.60
2017-10-16T06:35:03.511Z,68.70
2017-10-16T06:37:31.911Z,69.10
2017-10-16T06:40:00.123Z,69.20
2017-10-16T06:42:27.930Z,69.20
2017-10-16T06:44:55.441Z,69.70
2017-10-16T06:47:24.675Z,69.90
2017-10-16T06:49:52.127Z,70.10
2017-10-16T06:52:19.604Z,69.90
2017-10-16T06:54:47.080Z,70.00
2017-10-16T06:57:16.039Z,70.60
2017-10-16T06:59:44.270Z,70.80
2017-10-16T07:02:12.214Z,70.70
2017-10-16T07:04:40.515Z,70.40
2017-10-16T07:07:09.204Z,70.50
2017-10-16T07:09:37.849Z,70.60
2017-10-16T07:12:05.301Z,70.60
2017-10-16T07:14:33.001Z,71.60
2017-10-16T07:17:00.468Z,71.40
2017-10-16T07:19:27.969Z,71.60
2017-10-16T07:21:55.467Z,71.80
2017-10-16T07:24:22.908Z,72.10
2017-10-16T07:26:51.150Z,73.00
2017-10-16T07:29:18.612Z,72.90
2017-10-16T07:31:46.510Z,72.60
2017-10-16T07:34:14.475Z,72.70
2017-10-16T07:36:42.034Z,72.60
2017-10-16T07:39:09.501Z,73.20
2017-10-16T07:41:37.166Z,72.70
2017-10-16T07:44:04.605Z,72.80
2017-10-16T07:46:32.854Z,73.30
2017-10-16T07:49:00.675Z,73.30
2017-10-16T07:51:29.214Z,73.40
2017-10-16T07:53:56.665Z,73.30
2017-10-16T07:56:24.984Z,72.70
2017-10-16T07:58:53.029Z,72.60
2017-10-16T08:01:21.319Z,72.10
2017-10-16T08:03:49.255Z,72.10
2017-10-16T08:06:18.652Z,71.90
2017-10-16T08:08:46.460Z,71.80
2017-10-16T08:11:13.904Z,71.30
2017-10-16T08:13:41.772Z,71.50
2017-10-16T08:16:09.226Z,71.30
2017-10-16T08:18:36.722Z,71.20
2017-10-16T08:21:04.186Z,70.90
2017-10-16T08:23:31.892Z,70.60
2017-10-16T08:25:59.358Z,70.80
2017-10-16T08:28:26.800Z,70.60
2017-10-16T08:30:54.585Z,70.50
2017-10-16T08:33:22.101Z,70.30
2017-10-16T08:35:50.329Z,69.70
2017-10-16T08:38:17.778Z,69.70
2017-10-16T08:40:45.309Z,69.50
2017-10-16T08:43:13.577Z,68.80
2017-10-16T08:45:41.020Z,68.70
2017-10-16T08:48:09.480Z,68.70
2017-10-16T08:50:36.917Z,69.10
2017-10-16T08:53:04.428Z,69.00
2017-10-16T08:55:31.892Z,68.00
2017-10-16T08:58:00.041Z,68.40
2017-10-16T09:00:33.279Z,68.50
2017-10-16T09:03:01.942Z,68.30
2017-10-16T09:05:29.412Z,68.30
2017-10-16T09:07:57.262Z,68.90
2017-10-16T09:10:24.794Z,68.00
2017-10-16T09:12:52.316Z,68.10
2017-10-16T09:15:19.809Z,67.70
2017-10-16T09:17:47.301Z,67.10
2017-10-16T09:20:15.783Z,66.80
2017-10-16T09:22:44.395Z,66.20
2017-10-16T09:25:12.125Z,66.20
2017-10-16T09:27:39.612Z,64.80
2017-10-16T09:30:08.026Z,65.40
2017-10-16T09:32:35.603Z,64.70
2017-10-16T09:35:03.111Z,64.80
2017-10-16T09:37:30.945Z,64.80
2017-10-16T09:39:59.335Z,65.20
2017-10-16T09:42:27.578Z,64.00
2017-10-16T09:44:55.041Z,63.80
2017-10-16T09:47:23.550Z,64.10
2017-10-16T09:49:51.719Z,64.00
2017-10-16T09:52:19.503Z,63.60
2017-10-16T09:54:47.224Z,63.00
2017-10-16T09:57:15.375Z,63.60
2017-10-16T09:59:43.597Z,63.70
2017-10-16T10:02:11.726Z,63.70
2017-10-16T10:04:39.207Z,64.20
2017-10-16T10:07:07.278Z,63.60
2017-10-16T10:09:34.804Z,62.40
2017-10-16T10:12:02.353Z,62.70
2017-10-16T10:14:29.802Z,62.80
2017-10-16T10:16:57.356Z,63.20
2017-10-16T10:19:26.370Z,62.70
2017-10-16T10:21:53.833Z,61.00
2017-10-16T10:24:21.461Z,60.50
2017-10-16T10:26:48.934Z,60.30
2017-10-16T10:29:16.567Z,60.90
2017-10-16T10:31:44.221Z,59.80
2017-10-16T10:34:11.700Z,60.50
2017-10-16T10:36:40.091Z,59.80
2017-10-16T10:39:07.994Z,59.90
2017-10-16T10:41:36.214Z,60.50
2017-10-16T10:44:03.772Z,60.50
2017-10-16T10:46:31.243Z,59.70
2017-10-16T10:48:59.173Z,60.00
2017-10-16T10:51:26.654Z,60.40
2017-10-16T10:53:54.107Z,59.40
2017-10-16T10:56:22.227Z,58.60
2017-10-16T10:58:51.083Z,58.50
2017-10-16T11:01:18.565Z,58.50
2017-10-16T11:03:46.394Z,58.50
2017-10-16T11:06:13.880Z,58.80
2017-10-16T11:08:41.866Z,58.60
2017-10-16T11:11:09.498Z,57.90
2017-10-16T11:13:37.763Z,57.30
2017-10-16T11:16:05.739Z,57.20
2017-10-16T11:18:33.285Z,57.10
2017-10-16T11:21:01.545Z,56.10
2017-10-16T11:23:29.188Z,55.80
2017-10-16T11:25:56.661Z,55.40
2017-10-16T11:28:24.906Z,55.30
2017-10-16T11:30:52.492Z,55.20
2017-10-16T11:33:19.943Z,55.30
2017-10-16T11:35:47.793Z,55.10
2017-10-16T11:38:16.448Z,55.50
2017-10-16T11:40:43.996Z,55.40
2017-10-16T11:43:11.472Z,55.70
2017-10-16T11:45:39.465Z,54.30
2017-10-16T11:48:07.507Z,54.10
2017-10-16T11:50:35.020Z,53.20
2017-10-16T11:53:02.479Z,53.60
2017-10-16T11:55:30.418Z,52.80
2017-10-16T11:57:58.535Z,52.30
2017-10-16T12:00:26.069Z,52.80
2017-10-16T12:02:54.949Z,50.60
2017-10-16T12:05:22.449Z,50.20
2017-10-16T12:07:50.565Z,50.30
2017-10-16T12:10:18.132Z,50.20
2017-10-16T12:12:45.695Z,50.40
2017-10-16T12:15:13.930Z,50.20
2017-10-16T12:17:42.229Z,50.60
2017-10-16T12:20:10.489Z,49.30
2017-10-16T12:22:39.538Z,49.70
2017-10-16T12:25:07.059Z,49.60
2017-10-16T12:27:34.579Z,49.80
2017-10-16T12:30:03.269Z,51.00
2017-10-16T12:32:32.098Z,48.20
2017-10-16T12:34:59.597Z,48.20
2017-10-16T12:37:27.076Z,48.40
2017-10-16T12:39:54.627Z,47.00
2017-10-16T12:42:22.093Z,47.10
2017-10-16T12:44:49.641Z,48.00
2017-10-16T12:47:17.232Z,48.40
2017-10-16T12:49:45.021Z,46.90
2017-10-16T12:52:13.872Z,45.90
2017-10-16T12:54:42.159Z,46.20
2017-10-16T12:57:10.492Z,46.10
2017-10-16T12:59:37.964Z,46.80
2017-10-16T13:02:06.362Z,46.30
2017-10-16T13:04:34.288Z,47.00
2017-10-16T13:07:05.744Z,47.30
2017-10-16T13:09:33.978Z,46.30
2017-10-16T13:12:01.483Z,46.20
2017-10-16T13:14:28.967Z,45.20
2017-10-16T13:16:58.057Z,45.10
2017-10-16T13:19:26.745Z,44.70
2017-10-16T13:21:54.195Z,44.30
2017-10-16T13:24:21.673Z,44.90
2017-10-16T13:26:49.644Z,44.00
2017-10-16T13:29:17.113Z,44.00
2017-10-16T13:31:44.582Z,44.80
2017-10-16T13:34:12.035Z,44.20
2017-10-16T13:36:39.507Z,44.80
2017-10-16T13:39:06.968Z,45.10
2017-10-16T13:41:34.611Z,44.40
2017-10-16T13:44:02.823Z,45.00
2017-10-16T13:46:30.286Z,45.00
2017-10-16T13:48:58.154Z,44.50
2017-10-16T13:51:26.748Z,45.30
2017-10-16T13:53:54.951Z,44.60
2017-10-16T13:56:23.021Z,44.50
2017-10-16T13:58:50.867Z,44.70
2017-10-16T14:01:18.328Z,44.50
2017-10-16T14:03:46.197Z,45.10
2017-10-16T14:06:13.650Z,46.50
2017-10-16T14:08:41.549Z,46.60
2017-10-16T14:11:09.067Z,45.60
2017-10-16T14:13:36.547Z,47.00
2017-10-16T14:16:04.562Z,46.10
2017-10-16T14:18:32.054Z,44.50
2017-10-16T14:20:59.551Z,45.70
2017-10-16T14:23:27.799Z,45.90
2017-10-16T14:25:55.313Z,45.80
2017-10-16T14:28:22.778Z,46.20
2017-10-16T14:30:50.809Z,45.90
2017-10-16T14:33:18.345Z,47.00
2017-10-16T14:35:46.753Z,47.00
2017-10-16T14:38:14.232Z,46.00
2017-10-16T14:40:41.731Z,46.00
2017-10-16T14:43:09.199Z,45.90
2017-10-16T14:45:37.121Z,46.30
2017-10-16T14:48:05.177Z,45.90
2017-10-16T14:50:33.404Z,48.00
2017-10-16T14:53:00.955Z,48.00
2017-10-16T14:55:28.435Z,48.00
2017-10-16T14:57:57.242Z,48.60
2017-10-16T15:00:24.726Z,48.60
2017-10-16T15:02:52.747Z,49.80
2017-10-16T15:05:20.351Z,49.30
2017-10-16T15:07:48.335Z,49.10
2017-10-16T15:10:15.835Z,49.60
2017-10-16T15:12:43.959Z,49.00
2017-10-16T15:15:12.767Z,50.00
2017-10-16T15:17:40.360Z,49.90
2017-10-16T15:20:09.272Z,50.10
2017-10-16T15:22:36.788Z,50.50
2017-10-16T15:25:04.687Z,49.90
2017-10-16T15:27:32.218Z,50.10
2017-10-16T15:29:59.755Z,50.90
2017-10-16T15:32:27.590Z,49.90
2017-10-16T15:34:55.144Z,50.80
2017-10-16T15:37:23.333Z,49.20
2017-10-16T15:39:50.784Z,50.90
2017-10-16T15:42:18.294Z,51.60
2017-10-16T15:44:46.650Z,51.70
2017-10-16T15:47:14.907Z,52.20
2017-10-16T15:49:43.023Z,52.10
2017-10-16T15:52:11.251Z,53.50
2017-10-16T15:54:38.724Z,53.50
2017-10-16T15:57:06.706Z,52.80
2017-10-16T15:59:35.477Z,53.50
2017-10-16T16:02:04.159Z,54.00
2017-10-16T16:04:31.666Z,54.70
2017-10-16T16:07:00.612Z,55.20
2017-10-16T16:09:28.114Z,55.70
2017-10-16T16:11:55.554Z,55.80
2017-10-16T16:14:23.910Z,56.10
2017-10-16T16:16:51.371Z,56.00
2017-10-16T16:19:19.368Z,56.50
2017-10-16T16:21:46.820Z,56.90
2017-10-16T16:24:14.322Z,57.00
2017-10-16T16:26:41.847Z,57.10
2017-10-16T16:29:09.298Z,57.00
2017-10-16T16:31:36.762Z,57.50
2017-10-16T16:34:04.254Z,57.30
2017-10-16T16:36:32.049Z,57.20
2017-10-16T16:38:59.791Z,57.30
2017-10-16T16:41:27.332Z,57.50
2017-10-16T16:43:56.146Z,57.70
2017-10-16T16:46:24.859Z,57.30
2017-10-16T16:48:52.819Z,57.10
2017-10-16T16:51:21.028Z,57.90
2017-10-16T16:53:48.499Z,57.80
2017-10-16T16:56:18.037Z,57.90
2017-10-16T16:58:47.008Z,58.10
2017-10-16T17:01:15.306Z,58.80
2017-10-16T17:03:43.292Z,59.40
2017-10-16T17:06:10.853Z,59.10
2017-10-16T17:08:38.620Z,59.30
2017-10-16T17:11:06.872Z,59.90
2017-10-16T17:13:34.696Z,59.90
2017-10-16T17:16:02.928Z,59.80
2017-10-16T17:18:30.424Z,59.70
2017-10-16T17:20:58.853Z,59.90
2017-10-16T17:23:26.350Z,60.60
2017-10-16T17:25:54.052Z,60.00
2017-10-16T17:28:21.552Z,60.20
2017-10-16T17:30:49.808Z,60.70
2017-10-16T17:33:17.278Z,60.60
2017-10-16T17:35:44.891Z,60.70
2017-10-16T17:38:12.343Z,60.90
2017-10-16T17:40:41.262Z,60.90
2017-10-16T17:43:08.736Z,60.90
2017-10-16T17:45:36.373Z,60.90
2017-10-16T17:48:04.170Z,61.10
2017-10-16T17:50:31.752Z,61.30
2017-10-16T17:53:00.051Z,61.70
2017-10-16T17:55:28.196Z,61.60
2017-10-16T17:57:56.488Z,61.90
2017-10-16T18:00:24.783Z,62.50
2017-10-16T18:02:53.553Z,62.10
2017-10-16T18:05:22.064Z,62.00
2017-10-16T18:07:50.014Z,62.30
2017-10-16T18:10:17.474Z,62.30
2017-10-16T18:12:44.990Z,62.20
2017-10-16T18:15:13.355Z,61.90
2017-10-16T18:17:40.842Z,61.80
2017-10-16T18:20:08.456Z,61.00
2017-10-16T18:22:36.026Z,61.80
2017-10-16T18:25:04.426Z,61.70
2017-10-16T18:27:31.942Z,61.60
2017-10-16T18:29:59.484Z,61.50
2017-10-16T18:32:27.728Z,61.50
2017-10-16T18:34:56.204Z,61.40
2017-10-16T18:37:24.408Z,61.40
2017-10-16T18:39:53.464Z,61.20
2017-10-16T18:42:21.120Z,61.10
2017-10-16T18:44:49.081Z,61.20
2017-10-16T18:47:16.585Z,61.10
2017-10-16T18:49:44.589Z,61.70
2017-10-16T18:52:13.616Z,61.20
2017-10-16T18:54:41.924Z,61.00
2017-10-16T18:57:11.110Z,61.10
2017-10-16T18:59:39.178Z,61.10
2017-10-16T19:02:07.916Z,61.20
2017-10-16T19:04:35.397Z,61.40
2017-10-16T19:07:04.062Z,61.70
2017-10-16T19:09:32.395Z,61.90
2017-10-16T19:11:59.835Z,61.80
2017-10-16T19:14:27.415Z,61.90
2017-10-16T19:16:54.895Z,61.90
2017-10-16T19:19:22.391Z,62.10
2017-10-16T19:21:49.855Z,62.20
2017-10-16T19:24:17.557Z,62.20
2017-10-16T19:26:45.010Z,62.20
2017-10-16T19:29:12.501Z,62.40
2017-10-16T19:31:40.121Z,62.30
2017-10-16T19:34:08.036Z,63.00
2017-10-16T19:36:35.531Z,62.10
2017-10-16T19:39:03.791Z,62.20
2017-10-16T19:41:31.295Z,62.20
2017-10-16T19:43:59.977Z,62.30
2017-10-16T19:46:27.479Z,62.30
2017-10-16T19:48:55.359Z,62.20
2017-10-16T19:51:22.808Z,62.40
2017-10-16T19:53:51.315Z,62.50
2017-10-16T19:56:20.017Z,62.40
2017-10-16T19:58:47.938Z,62.40
2017-10-16T20:01:15.383Z,62.40
2017-10-16T20:03:43.262Z,62.40
2017-10-16T20:06:10.719Z,62.20
2017-10-16T20:08:38.540Z,62.40
2017-10-16T20:11:06.023Z,62.50
2017-10-16T20:13:35.014Z,62.70
2017-10-16T20:16:02.479Z,62.70
2017-10-16T20:18:30.006Z,63.00
2017-10-16T20:20:57.476Z,63.10
2017-10-16T20:23:25.052Z,63.20
2017-10-16T20:25:52.614Z,63.00
2017-10-16T20:28:21.110Z,62.80
2017-10-16T20:30:48.586Z,62.80
2017-10-16T20:33:16.455Z,62.60
2017-10-16T20:35:44.071Z,62.50
2017-10-16T20:38:12.063Z,62.50
2017-10-16T20:40:40.905Z,62.80
2017-10-16T20:43:09.350Z,63.00
2017-10-16T20:45:37.019Z,62.80
2017-10-16T20:48:04.956Z,63.20
2017-10-16T20:50:32.472Z,63.20
2017-10-16T20:52:59.960Z,63.10
2017-10-16T20:55:27.428Z,63.00
2017-10-16T20:57:55.212Z,63.20
2017-10-16T21:00:22.664Z,63.20
2017-10-16T21:02:50.641Z,63.20
2017-10-16T21:05:18.101Z,63.20
2017-10-16T21:07:46.176Z,63.50
2017-10-16T21:10:13.633Z,63.10
2017-10-16T21:12:41.106Z,63.00
2017-10-16T21:15:08.567Z,63.20
2017-10-16T21:17:36.044Z,63.80
2017-10-16T21:20:04.116Z,63.50
2017-10-16T21:22:31.646Z,63.30
2017-10-16T21:24:59.143Z,63.30
2017-10-16T21:27:27.212Z,63.60
2017-10-16T21:29:55.863Z,63.60
2017-10-16T21:32:23.735Z,63.40
2017-10-16T21:34:51.217Z,63.20
2017-10-16T21:37:19.829Z,63.30
2017-10-16T21:39:48.153Z,63.20
2017-10-16T21:42:15.618Z,63.20
2017-10-16T21:44:43.860Z,63.90
2017-10-16T21:47:11.307Z,63.80
2017-10-16T21:49:39.150Z,63.70
2017-10-16T21:52:07.391Z,63.90
2017-10-16T21:54:34.866Z,63.90
2017-10-16T21:57:03.552Z,63.70
2017-10-16T21:59:31.005Z,63.50
2017-10-16T22:01:58.475Z,63.30
2017-10-16T22:04:26.358Z,63.30
2017-10-16T22:06:54.490Z,63.50
2017-10-16T22:09:22.706Z,63.80
2017-10-16T22:11:50.173Z,63.70
2017-10-16T22:14:17.650Z,63.60
2017-10-16T22:16:45.223Z,63.70
2017-10-16T22:19:12.676Z,64.00
2017-10-16T22:21:40.170Z,64.00
2017-10-16T22:24:08.062Z,64.00
2017-10-16T22:26:35.900Z,64.00
2017-10-16T22:29:03.349Z,63.70
2017-10-16T22:31:32.126Z,64.00
2017-10-16T22:33:59.589Z,64.00
2017-10-16T22:36:27.031Z,64.20
2017-10-16T22:38:54.507Z,64.10
2017-10-16T22:41:21.984Z,64.30
2017-10-16T22:43:49.550Z,64.10
2017-10-16T22:46:17.502Z,64.30
2017-10-16T22:48:45.891Z,64.10
2017-10-16T22:51:13.412Z,64.20
2017-10-16T22:53:40.868Z,64.10
2017-10-16T22:56:09.693Z,64.00
2017-10-16T22:58:38.317Z,64.30
2017-10-16T23:01:06.534Z,64.10
2017-10-16T23:03:34.434Z,64.10
2017-10-16T23:06:01.872Z,64.40
2017-10-16T23:08:29.832Z,64.50
2017-10-16T23:10:58.125Z,64.40
2017-10-16T23:13:26.371Z,64.50
2017-10-16T23:15:54.297Z,64.50
2017-10-16T23:18:21.862Z,64.50
2017-10-16T23:20:51.992Z,64.30
2017-10-16T23:23:21.454Z,64.40
2017-10-16T23:25:48.914Z,64.40
2017-10-16T23:28:16.388Z,64.60
2017-10-16T23:30:43.846Z,64.40
2017-10-16T23:33:11.420Z,64.40
2017-10-16T23:35:39.015Z,64.50
2017-10-16T23:38:06.519Z,64.50
2017-10-16T23:40:34.204Z,64.20
2017-10-16T23:43:01.673Z,64.40
2017-10-16T23:45:29.901Z,64.50
2017-10-16T23:47:57.974Z,64.50
2017-10-16T23:50:25.471Z,64.50
2017-10-16T23:52:52.912Z,64.40
2017-10-16T23:55:20.394Z,64.30
2017-10-16T23:57:48.378Z,64.20
